sensor_id;sensor_type;location;lat;lon;timestamp;pressure;altitude;pressure_sealevel;temperature;humidity
20027;BME280;10174;42.688;23.344;2022-07-04T00:00:03;95527.53;;;22.35;54.03
20027;BME280;10174;42.688;23.344;2022-07-04T00:02:28;95502.06;;;22.14;54.03
20027;BME280;10174;42.688;23.344;2022-07-04T00:04:54;95513.22;;;22.09;53.88
20027;BME280;10174;42.688;23.344;2022-07-04T00:07:19;95512.41;;;22.08;53.83
20027;BME280;10174;42.688;23.344;2022-07-04T00:09:45;95522.03;;;22.14;53.54
20027;BME280;10174;42.688;23.344;2022-07-04T00:12:10;95514.00;;;22.09;53.91
20027;BME280;10174;42.688;23.344;2022-07-04T00:14:37;95520.13;;;22.06;54.46
20027;BME280;10174;42.688;23.344;2022-07-04T00:17:02;95528.34;;;22.06;54.69
20027;BME280;10174;42.688;23.344;2022-07-04T00:19:28;95520.78;;;22.03;54.04
20027;BME280;10174;42.688;23.344;2022-07-04T00:21:53;95528.25;;;21.94;53.96
20027;BME280;10174;42.688;23.344;2022-07-04T00:24:19;95496.47;;;21.80;53.87
20027;BME280;10174;42.688;23.344;2022-07-04T00:26:44;95503.13;;;21.70;54.80
20027;BME280;10174;42.688;23.344;2022-07-04T00:29:09;95500.44;;;21.62;54.41
20027;BME280;10174;42.688;23.344;2022-07-04T00:31:35;95451.38;;;21.27;54.53
20027;BME280;10174;42.688;23.344;2022-07-04T00:34:01;95461.19;;;21.28;55.06
20027;BME280;10174;42.688;23.344;2022-07-04T00:36:26;95485.41;;;21.38;54.65
20027;BME280;10174;42.688;23.344;2022-07-04T00:38:52;95512.69;;;21.56;55.19
20027;BME280;10174;42.688;23.344;2022-07-04T00:41:17;95521.50;;;21.61;55.11
20027;BME280;10174;42.688;23.344;2022-07-04T00:43:42;95478.66;;;21.44;54.15
20027;BME280;10174;42.688;23.344;2022-07-04T00:46:08;95453.19;;;21.23;55.02
20027;BME280;10174;42.688;23.344;2022-07-04T00:48:33;95497.91;;;21.57;54.40
20027;BME280;10174;42.688;23.344;2022-07-04T00:50:59;95395.53;;;20.77;54.90
20027;BME280;10174;42.688;23.344;2022-07-04T00:53:25;95500.19;;;21.37;54.70
20027;BME280;10174;42.688;23.344;2022-07-04T00:55:51;95524.28;;;21.52;54.45
20027;BME280;10174;42.688;23.344;2022-07-04T00:58:20;95488.81;;;21.35;54.46
20027;BME280;10174;42.688;23.344;2022-07-04T01:00:46;95487.72;;;21.27;53.97
20027;BME280;10174;42.688;23.344;2022-07-04T01:03:11;95490.28;;;21.24;54.48
20027;BME280;10174;42.688;23.344;2022-07-04T01:05:38;95430.50;;;20.92;53.27
20027;BME280;10174;42.688;23.344;2022-07-04T01:08:04;95499.91;;;21.30;53.88
20027;BME280;10174;42.688;23.344;2022-07-04T01:10:30;95505.38;;;21.30;53.82
20027;BME280;10174;42.688;23.344;2022-07-04T01:12:56;95495.25;;;21.30;53.04
20027;BME280;10174;42.688;23.344;2022-07-04T01:15:21;95468.34;;;21.03;53.44
20027;BME280;10174;42.688;23.344;2022-07-04T01:17:47;95499.63;;;21.23;53.49
20027;BME280;10174;42.688;23.344;2022-07-04T01:20:13;95511.13;;;21.37;53.19
20027;BME280;10174;42.688;23.344;2022-07-04T01:22:39;95469.16;;;21.03;52.97
20027;BME280;10174;42.688;23.344;2022-07-04T01:25:05;95482.94;;;21.15;52.88
20027;BME280;10174;42.688;23.344;2022-07-04T01:27:30;95378.91;;;20.43;52.55
20027;BME280;10174;42.688;23.344;2022-07-04T01:29:56;95509.59;;;21.18;53.11
20027;BME280;10174;42.688;23.344;2022-07-04T01:32:21;95507.97;;;21.17;52.66
20027;BME280;10174;42.688;23.344;2022-07-04T01:34:47;95490.50;;;21.01;53.05
20027;BME280;10174;42.688;23.344;2022-07-04T01:37:12;95424.91;;;20.54;53.27
20027;BME280;10174;42.688;23.344;2022-07-04T01:39:38;95500.66;;;20.92;52.99
20027;BME280;10174;42.688;23.344;2022-07-04T01:42:04;95498.09;;;20.87;53.35
20027;BME280;10174;42.688;23.344;2022-07-04T01:44:31;95515.28;;;20.87;53.21
20027;BME280;10174;42.688;23.344;2022-07-04T01:46:57;95394.81;;;20.24;53.06
20027;BME280;10174;42.688;23.344;2022-07-04T01:49:22;95433.16;;;20.36;52.96
20027;BME280;10174;42.688;23.344;2022-07-04T01:51:49;95449.66;;;20.49;52.89
20027;BME280;10174;42.688;23.344;2022-07-04T01:54:15;95515.44;;;20.91;53.25
20027;BME280;10174;42.688;23.344;2022-07-04T01:56:41;95495.88;;;20.71;53.41
20027;BME280;10174;42.688;23.344;2022-07-04T01:59:07;95479.81;;;20.61;52.97
20027;BME280;10174;42.688;23.344;2022-07-04T02:01:32;95487.88;;;20.66;52.81
20027;BME280;10174;42.688;23.344;2022-07-04T02:04:00;95499.59;;;20.75;52.22
20027;BME280;10174;42.688;23.344;2022-07-04T02:06:26;95438.59;;;20.27;52.19
20027;BME280;10174;42.688;23.344;2022-07-04T02:08:52;95484.16;;;20.62;52.31
20027;BME280;10174;42.688;23.344;2022-07-04T02:11:37;95472.91;;;20.46;52.18
20027;BME280;10174;42.688;23.344;2022-07-04T02:14:21;95463.94;;;20.37;52.24
20027;BME280;10174;42.688;23.344;2022-07-04T02:16:47;95506.31;;;20.60;52.43
20027;BME280;10174;42.688;23.344;2022-07-04T02:19:12;95516.44;;;20.60;52.31
20027;BME280;10174;42.688;23.344;2022-07-04T02:21:38;95508.72;;;20.62;52.03
20027;BME280;10174;42.688;23.344;2022-07-04T02:24:04;95519.03;;;20.65;51.89
20027;BME280;10174;42.688;23.344;2022-07-04T02:26:29;95409.25;;;19.98;51.79
20027;BME280;10174;42.688;23.344;2022-07-04T02:28:55;95516.28;;;20.65;51.95
20027;BME280;10174;42.688;23.344;2022-07-04T02:31:20;95523.97;;;20.63;51.46
20027;BME280;10174;42.688;23.344;2022-07-04T02:33:45;95506.94;;;20.49;52.22
20027;BME280;10174;42.688;23.344;2022-07-04T02:36:11;95505.81;;;20.32;53.10
20027;BME280;10174;42.688;23.344;2022-07-04T02:38:36;95502.44;;;20.35;52.59
20027;BME280;10174;42.688;23.344;2022-07-04T02:41:02;95515.94;;;20.40;52.60
20027;BME280;10174;42.688;23.344;2022-07-04T02:43:27;95515.13;;;20.40;52.05
20027;BME280;10174;42.688;23.344;2022-07-04T02:45:53;95418.09;;;19.78;52.22
20027;BME280;10174;42.688;23.344;2022-07-04T02:48:18;95498.94;;;20.26;52.00
20027;BME280;10174;42.688;23.344;2022-07-04T02:50:43;95511.63;;;20.22;53.48
20027;BME280;10174;42.688;23.344;2022-07-04T02:53:09;95437.38;;;19.50;54.35
20027;BME280;10174;42.688;23.344;2022-07-04T02:55:34;95486.22;;;19.78;53.69
20027;BME280;10174;42.688;23.344;2022-07-04T02:58:00;95498.06;;;19.82;54.61
20027;BME280;10174;42.688;23.344;2022-07-04T03:00:26;95501.75;;;19.77;54.26
20027;BME280;10174;42.688;23.344;2022-07-04T03:02:53;95483.69;;;19.50;55.24
20027;BME280;10174;42.688;23.344;2022-07-04T03:05:18;95523.59;;;19.54;55.48
20027;BME280;10174;42.688;23.344;2022-07-04T03:07:44;95536.59;;;19.57;55.16
20027;BME280;10174;42.688;23.344;2022-07-04T03:10:09;95528.53;;;19.44;55.17
20027;BME280;10174;42.688;23.344;2022-07-04T03:12:35;95552.94;;;19.49;55.42
20027;BME280;10174;42.688;23.344;2022-07-04T03:15:00;95539.56;;;19.38;54.93
20027;BME280;10174;42.688;23.344;2022-07-04T03:17:26;95522.56;;;19.33;55.22
20027;BME280;10174;42.688;23.344;2022-07-04T03:19:51;95552.44;;;19.47;55.26
20027;BME280;10174;42.688;23.344;2022-07-04T03:22:17;95519.94;;;19.19;54.96
20027;BME280;10174;42.688;23.344;2022-07-04T03:24:42;95461.72;;;18.75;56.14
20027;BME280;10174;42.688;23.344;2022-07-04T03:27:08;95541.72;;;19.19;56.45
20027;BME280;10174;42.688;23.344;2022-07-04T03:29:34;95533.69;;;19.14;57.09
20027;BME280;10174;42.688;23.344;2022-07-04T03:31:59;95534.31;;;19.11;56.58
20027;BME280;10174;42.688;23.344;2022-07-04T03:34:24;95531.09;;;19.09;57.62
20027;BME280;10174;42.688;23.344;2022-07-04T03:36:50;95517.44;;;19.00;57.31
20027;BME280;10174;42.688;23.344;2022-07-04T03:39:15;95560.97;;;19.22;57.33
20027;BME280;10174;42.688;23.344;2022-07-04T03:41:41;95537.28;;;19.23;56.45
20027;BME280;10174;42.688;23.344;2022-07-04T03:44:06;95557.53;;;19.39;56.68
20027;BME280;10174;42.688;23.344;2022-07-04T03:46:32;95556.88;;;19.34;57.38
20027;BME280;10174;42.688;23.344;2022-07-04T03:48:57;95546.53;;;19.22;57.76
20027;BME280;10174;42.688;23.344;2022-07-04T03:51:23;95533.50;;;19.10;59.61
20027;BME280;10174;42.688;23.344;2022-07-04T03:53:48;95543.06;;;19.30;59.88
20027;BME280;10174;42.688;23.344;2022-07-04T03:56:14;95552.31;;;19.52;64.16
20027;BME280;10174;42.688;23.344;2022-07-04T03:58:40;95548.47;;;19.62;60.17
20027;BME280;10174;42.688;23.344;2022-07-04T04:01:08;95552.50;;;19.64;60.73
20027;BME280;10174;42.688;23.344;2022-07-04T04:03:34;95549.75;;;19.55;58.85
20027;BME280;10174;42.688;23.344;2022-07-04T04:06:17;95546.78;;;19.74;57.16
20027;BME280;10174;42.688;23.344;2022-07-04T04:08:43;95531.69;;;19.68;58.53
20027;BME280;10174;42.688;23.344;2022-07-04T04:11:09;95528.09;;;19.59;58.93
20027;BME280;10174;42.688;23.344;2022-07-04T04:13:34;95550.19;;;19.89;58.15
20027;BME280;10174;42.688;23.344;2022-07-04T04:15:59;95452.69;;;19.28;57.41
20027;BME280;10174;42.688;23.344;2022-07-04T04:18:25;95541.41;;;19.92;57.50
20027;BME280;10174;42.688;23.344;2022-07-04T04:20:50;95536.56;;;19.89;56.66
20027;BME280;10174;42.688;23.344;2022-07-04T04:23:16;95530.78;;;19.82;56.63
20027;BME280;10174;42.688;23.344;2022-07-04T04:25:41;95529.66;;;19.83;56.03
20027;BME280;10174;42.688;23.344;2022-07-04T04:28:07;95458.53;;;19.53;55.33
20027;BME280;10174;42.688;23.344;2022-07-04T04:30:32;95543.38;;;20.18;54.83
20027;BME280;10174;42.688;23.344;2022-07-04T04:32:58;95567.78;;;20.40;53.84
20027;BME280;10174;42.688;23.344;2022-07-04T04:35:24;95544.34;;;20.39;52.96
20027;BME280;10174;42.688;23.344;2022-07-04T04:37:49;95537.28;;;20.47;53.09
20027;BME280;10174;42.688;23.344;2022-07-04T04:40:14;95564.72;;;20.59;51.71
20027;BME280;10174;42.688;23.344;2022-07-04T04:42:40;95512.91;;;20.33;52.16
20027;BME280;10174;42.688;23.344;2022-07-04T04:45:06;95539.84;;;20.61;52.39
20027;BME280;10174;42.688;23.344;2022-07-04T04:47:31;95515.13;;;20.49;52.93
20027;BME280;10174;42.688;23.344;2022-07-04T04:49:57;95539.06;;;20.60;54.24
20027;BME280;10174;42.688;23.344;2022-07-04T04:52:22;95559.47;;;20.80;54.29
20027;BME280;10174;42.688;23.344;2022-07-04T04:54:48;95542.75;;;20.73;54.27
20027;BME280;10174;42.688;23.344;2022-07-04T04:57:13;95564.75;;;20.94;53.67
20027;BME280;10174;42.688;23.344;2022-07-04T04:59:39;95530.53;;;20.79;52.22
20027;BME280;10174;42.688;23.344;2022-07-04T05:02:04;95563.91;;;21.11;51.84
20027;BME280;10174;42.688;23.344;2022-07-04T05:04:30;95559.13;;;20.91;52.01
20027;BME280;10174;42.688;23.344;2022-07-04T05:06:55;95563.31;;;20.97;52.32
20027;BME280;10174;42.688;23.344;2022-07-04T05:09:21;95568.44;;;21.07;51.54
20027;BME280;10174;42.688;23.344;2022-07-04T05:11:47;95512.59;;;20.78;51.06
20027;BME280;10174;42.688;23.344;2022-07-04T05:14:14;95531.78;;;21.08;51.50
20027;BME280;10174;42.688;23.344;2022-07-04T05:16:40;95518.31;;;21.03;51.27
20027;BME280;10174;42.688;23.344;2022-07-04T05:19:05;95535.16;;;21.14;50.80
20027;BME280;10174;42.688;23.344;2022-07-04T05:21:31;95533.19;;;21.23;50.77
20027;BME280;10174;42.688;23.344;2022-07-04T05:23:56;95567.84;;;21.58;50.54
20027;BME280;10174;42.688;23.344;2022-07-04T05:26:22;95524.34;;;21.35;49.97
20027;BME280;10174;42.688;23.344;2022-07-04T05:28:48;95570.84;;;21.65;50.57
20027;BME280;10174;42.688;23.344;2022-07-04T05:31:13;95563.66;;;21.90;50.46
20027;BME280;10174;42.688;23.344;2022-07-04T05:33:39;95540.50;;;21.87;49.70
20027;BME280;10174;42.688;23.344;2022-07-04T05:36:04;95517.63;;;22.43;47.82
20027;BME280;10174;42.688;23.344;2022-07-04T05:38:30;95523.22;;;24.46;43.41
20027;BME280;10174;42.688;23.344;2022-07-04T05:40:55;95557.28;;;27.32;38.75
20027;BME280;10174;42.688;23.344;2022-07-04T05:43:21;95560.72;;;28.44;35.16
20027;BME280;10174;42.688;23.344;2022-07-04T05:45:52;95539.41;;;29.40;33.08
20027;BME280;10174;42.688;23.344;2022-07-04T05:48:18;95518.06;;;29.81;31.70
20027;BME280;10174;42.688;23.344;2022-07-04T05:50:44;95524.69;;;27.61;35.12
20027;BME280;10174;42.688;23.344;2022-07-04T05:53:10;95537.56;;;26.71;36.54
20027;BME280;10174;42.688;23.344;2022-07-04T05:55:35;95541.91;;;25.25;38.42
20027;BME280;10174;42.688;23.344;2022-07-04T05:58:01;95472.63;;;24.18;39.93
20027;BME280;10174;42.688;23.344;2022-07-04T06:00:26;95486.94;;;24.12;40.31
20027;BME280;10174;42.688;23.344;2022-07-04T06:02:51;95559.97;;;24.29;40.12
20027;BME280;10174;42.688;23.344;2022-07-04T06:05:17;95556.63;;;24.48;40.47
20027;BME280;10174;42.688;23.344;2022-07-04T06:07:42;95561.53;;;24.95;39.51
20027;BME280;10174;42.688;23.344;2022-07-04T06:10:09;95534.09;;;24.83;39.79
20027;BME280;10174;42.688;23.344;2022-07-04T06:12:34;95482.16;;;24.37;39.82
20027;BME280;10174;42.688;23.344;2022-07-04T06:15:00;95477.38;;;24.75;39.72
20027;BME280;10174;42.688;23.344;2022-07-04T06:17:26;95513.47;;;25.33;39.31
20027;BME280;10174;42.688;23.344;2022-07-04T06:19:51;95460.78;;;24.43;39.77
20027;BME280;10174;42.688;23.344;2022-07-04T06:22:16;95484.72;;;24.30;40.56
20027;BME280;10174;42.688;23.344;2022-07-04T06:24:42;95500.81;;;24.44;40.81
20027;BME280;10174;42.688;23.344;2022-07-04T06:27:07;95545.94;;;24.99;40.27
20027;BME280;10174;42.688;23.344;2022-07-04T06:29:33;95531.78;;;25.13;39.87
20027;BME280;10174;42.688;23.344;2022-07-04T06:31:58;95557.97;;;25.23;39.46
20027;BME280;10174;42.688;23.344;2022-07-04T06:34:24;95532.91;;;24.96;40.18
20027;BME280;10174;42.688;23.344;2022-07-04T06:37:08;95488.16;;;24.67;40.68
20027;BME280;10174;42.688;23.344;2022-07-04T06:39:33;95516.63;;;24.75;41.07
20027;BME280;10174;42.688;23.344;2022-07-04T06:41:58;95529.66;;;25.06;41.35
20027;BME280;10174;42.688;23.344;2022-07-04T06:44:24;95554.88;;;24.96;41.47
20027;BME280;10174;42.688;23.344;2022-07-04T06:46:49;95467.97;;;24.47;41.09
20027;BME280;10174;42.688;23.344;2022-07-04T06:49:16;95553.47;;;25.02;41.62
20027;BME280;10174;42.688;23.344;2022-07-04T06:51:41;95512.09;;;24.95;41.47
20027;BME280;10174;42.688;23.344;2022-07-04T06:54:07;95550.13;;;25.37;41.04
20027;BME280;10174;42.688;23.344;2022-07-04T06:56:32;95499.16;;;25.12;40.63
20027;BME280;10174;42.688;23.344;2022-07-04T06:58:58;95524.41;;;25.30;40.28
20027;BME280;10174;42.688;23.344;2022-07-04T07:01:23;95476.22;;;25.20;40.50
20027;BME280;10174;42.688;23.344;2022-07-04T07:03:49;95533.47;;;25.62;40.74
20027;BME280;10174;42.688;23.344;2022-07-04T07:06:14;95486.00;;;25.33;40.08
20027;BME280;10174;42.688;23.344;2022-07-04T07:08:40;95533.22;;;25.67;40.65
20027;BME280;10174;42.688;23.344;2022-07-04T07:11:05;95521.03;;;25.68;41.04
20027;BME280;10174;42.688;23.344;2022-07-04T07:13:48;95526.44;;;25.81;41.10
20027;BME280;10174;42.688;23.344;2022-07-04T07:16:15;95515.75;;;26.27;39.68
20027;BME280;10174;42.688;23.344;2022-07-04T07:18:41;95517.28;;;26.44;40.38
20027;BME280;10174;42.688;23.344;2022-07-04T07:21:06;95375.97;;;25.65;40.80
20027;BME280;10174;42.688;23.344;2022-07-04T07:23:32;95426.69;;;25.84;41.15
20027;BME280;10174;42.688;23.344;2022-07-04T07:25:57;95501.22;;;26.10;40.80
20027;BME280;10174;42.688;23.344;2022-07-04T07:28:22;95489.06;;;26.11;40.91
20027;BME280;10174;42.688;23.344;2022-07-04T07:30:48;95514.34;;;26.72;38.90
20027;BME280;10174;42.688;23.344;2022-07-04T07:33:13;95494.91;;;26.65;39.13
20027;BME280;10174;42.688;23.344;2022-07-04T07:35:39;95514.81;;;26.94;38.41
20027;BME280;10174;42.688;23.344;2022-07-04T07:38:04;95520.28;;;26.55;39.01
20027;BME280;10174;42.688;23.344;2022-07-04T07:40:31;95501.28;;;26.49;39.51
20027;BME280;10174;42.688;23.344;2022-07-04T07:42:57;95472.94;;;26.49;39.20
20027;BME280;10174;42.688;23.344;2022-07-04T07:45:23;95448.38;;;26.40;39.79
20027;BME280;10174;42.688;23.344;2022-07-04T07:47:48;95517.81;;;27.08;38.75
20027;BME280;10174;42.688;23.344;2022-07-04T07:50:13;95466.72;;;26.72;38.42
20027;BME280;10174;42.688;23.344;2022-07-04T07:52:39;95470.72;;;26.94;38.88
20027;BME280;10174;42.688;23.344;2022-07-04T07:55:04;95490.09;;;27.20;38.42
20027;BME280;10174;42.688;23.344;2022-07-04T07:57:30;95472.03;;;27.23;38.16
20027;BME280;10174;42.688;23.344;2022-07-04T07:59:56;95477.97;;;27.48;37.50
20027;BME280;10174;42.688;23.344;2022-07-04T08:02:22;95481.28;;;27.58;38.29
20027;BME280;10174;42.688;23.344;2022-07-04T08:05:09;95495.38;;;27.76;38.19
20027;BME280;10174;42.688;23.344;2022-07-04T08:07:34;95492.31;;;27.58;38.20
20027;BME280;10174;42.688;23.344;2022-07-04T08:10:00;95487.63;;;27.58;38.72
20027;BME280;10174;42.688;23.344;2022-07-04T08:12:25;95401.44;;;27.42;37.97
20027;BME280;10174;42.688;23.344;2022-07-04T08:14:51;95484.94;;;28.42;37.86
20027;BME280;10174;42.688;23.344;2022-07-04T08:17:16;95437.25;;;28.49;37.17
20027;BME280;10174;42.688;23.344;2022-07-04T08:19:42;95427.59;;;28.32;37.51
20027;BME280;10174;42.688;23.344;2022-07-04T08:22:07;95500.47;;;28.84;37.28
20027;BME280;10174;42.688;23.344;2022-07-04T08:24:32;95465.25;;;29.15;35.96
20027;BME280;10174;42.688;23.344;2022-07-04T08:26:58;95493.94;;;29.82;35.64
20027;BME280;10174;42.688;23.344;2022-07-04T08:29:23;95472.00;;;29.62;35.87
20027;BME280;10174;42.688;23.344;2022-07-04T08:31:49;95446.41;;;29.73;35.67
20027;BME280;10174;42.688;23.344;2022-07-04T08:34:15;95431.38;;;30.33;34.79
20027;BME280;10174;42.688;23.344;2022-07-04T08:36:40;95467.75;;;31.16;34.42
20027;BME280;10174;42.688;23.344;2022-07-04T08:39:06;95466.50;;;32.57;32.26
20027;BME280;10174;42.688;23.344;2022-07-04T08:41:37;95418.13;;;33.14;30.60
20027;BME280;10174;42.688;23.344;2022-07-04T08:44:05;95389.84;;;33.27;30.42
20027;BME280;10174;42.688;23.344;2022-07-04T08:46:31;95441.34;;;34.40;29.84
20027;BME280;10174;42.688;23.344;2022-07-04T08:48:58;95469.31;;;35.02;28.73
20027;BME280;10174;42.688;23.344;2022-07-04T08:52:02;95474.31;;;35.14;28.23
20027;BME280;10174;42.688;23.344;2022-07-04T08:54:25;95465.81;;;34.94;28.56
20027;BME280;10174;42.688;23.344;2022-07-04T08:57:10;95400.22;;;35.37;27.34
20027;BME280;10174;42.688;23.344;2022-07-04T08:59:54;95455.84;;;36.86;26.75
20027;BME280;10174;42.688;23.344;2022-07-04T09:02:22;95466.28;;;37.22;26.58
20027;BME280;10174;42.688;23.344;2022-07-04T09:04:49;95452.00;;;37.69;25.67
20027;BME280;10174;42.688;23.344;2022-07-04T09:07:15;95450.91;;;38.29;24.95
20027;BME280;10174;42.688;23.344;2022-07-04T09:09:41;95457.13;;;37.38;26.23
20027;BME280;10174;42.688;23.344;2022-07-04T09:12:08;95451.97;;;38.19;24.83
20027;BME280;10174;42.688;23.344;2022-07-04T09:14:34;95462.59;;;38.99;23.76
20027;BME280;10174;42.688;23.344;2022-07-04T09:17:00;95459.34;;;38.12;24.75
20027;BME280;10174;42.688;23.344;2022-07-04T09:19:25;95398.09;;;37.12;25.22
20027;BME280;10174;42.688;23.344;2022-07-04T09:21:51;95435.09;;;37.40;24.37
20027;BME280;10174;42.688;23.344;2022-07-04T09:24:40;95456.88;;;37.49;24.41
20027;BME280;10174;42.688;23.344;2022-07-04T09:27:06;95435.84;;;38.81;23.43
20027;BME280;10174;42.688;23.344;2022-07-04T09:29:32;95459.75;;;38.57;23.48
20027;BME280;10174;42.688;23.344;2022-07-04T09:31:57;95454.47;;;38.75;22.41
20027;BME280;10174;42.688;23.344;2022-07-04T09:34:22;95439.88;;;38.22;23.31
20027;BME280;10174;42.688;23.344;2022-07-04T09:36:51;95406.19;;;37.92;24.05
20027;BME280;10174;42.688;23.344;2022-07-04T09:39:20;95441.88;;;39.48;22.27
20027;BME280;10174;42.688;23.344;2022-07-04T09:42:03;95435.53;;;38.63;22.88
20027;BME280;10174;42.688;23.344;2022-07-04T09:47:22;95393.47;;;38.63;21.57
20027;BME280;10174;42.688;23.344;2022-07-04T09:52:27;95372.53;;;38.80;22.45
20027;BME280;10174;42.688;23.344;2022-07-04T09:55:01;95435.78;;;39.75;21.74
20027;BME280;10174;42.688;23.344;2022-07-04T09:57:29;95436.84;;;39.56;22.28
20027;BME280;10174;42.688;23.344;2022-07-04T09:59:55;95442.59;;;38.97;22.64
20027;BME280;10174;42.688;23.344;2022-07-04T10:02:21;95423.00;;;39.35;22.55
20027;BME280;10174;42.688;23.344;2022-07-04T10:04:51;95368.97;;;38.93;23.23
20027;BME280;10174;42.688;23.344;2022-07-04T10:07:38;95435.59;;;40.17;21.52
20027;BME280;10174;42.688;23.344;2022-07-04T10:10:36;95407.41;;;41.28;21.43
20027;BME280;10174;42.688;23.344;2022-07-04T10:13:08;95437.19;;;43.18;18.65
20027;BME280;10174;42.688;23.344;2022-07-04T10:15:36;95425.78;;;39.74;22.08
20027;BME280;10174;42.688;23.344;2022-07-04T10:18:06;95420.16;;;38.55;23.69
20027;BME280;10174;42.688;23.344;2022-07-04T10:20:31;95426.31;;;38.20;24.74
20027;BME280;10174;42.688;23.344;2022-07-04T10:22:58;95423.00;;;39.35;23.41
20027;BME280;10174;42.688;23.344;2022-07-04T10:25:24;95425.03;;;39.22;23.41
20027;BME280;10174;42.688;23.344;2022-07-04T10:27:49;95299.53;;;38.55;23.82
20027;BME280;10174;42.688;23.344;2022-07-04T10:30:26;95424.38;;;40.62;21.91
20027;BME280;10174;42.688;23.344;2022-07-04T10:32:53;95417.81;;;40.42;22.19
20027;BME280;10174;42.688;23.344;2022-07-04T10:38:13;95397.16;;;40.58;22.18
20027;BME280;10174;42.688;23.344;2022-07-04T10:40:40;95410.63;;;40.41;21.93
20027;BME280;10174;42.688;23.344;2022-07-04T10:51:43;95401.59;;;40.91;21.90
20027;BME280;10174;42.688;23.344;2022-07-04T10:59:25;95374.06;;;37.97;24.94
20027;BME280;10174;42.688;23.344;2022-07-04T11:04:53;95389.97;;;40.57;23.07
20027;BME280;10174;42.688;23.344;2022-07-04T11:08:08;95373.72;;;41.24;21.87
20027;BME280;10174;42.688;23.344;2022-07-04T11:17:59;95383.72;;;40.40;22.67
20027;BME280;10174;42.688;23.344;2022-07-04T11:20:27;95362.78;;;38.85;24.03
20027;BME280;10174;42.688;23.344;2022-07-04T11:23:12;95300.19;;;37.74;25.11
20027;BME280;10174;42.688;23.344;2022-07-04T11:25:41;95298.41;;;37.35;26.15
20027;BME280;10174;42.688;23.344;2022-07-04T11:28:30;95371.75;;;36.93;27.98
20027;BME280;10174;42.688;23.344;2022-07-04T11:30:58;95373.81;;;36.32;28.28
20027;BME280;10174;42.688;23.344;2022-07-04T11:33:30;95356.84;;;35.56;29.33
20027;BME280;10174;42.688;23.344;2022-07-04T11:36:07;95368.69;;;35.63;28.68
20027;BME280;10174;42.688;23.344;2022-07-04T11:41:11;95348.19;;;34.03;30.43
20027;BME280;10174;42.688;23.344;2022-07-04T11:43:55;95300.03;;;33.26;31.57
20027;BME280;10174;42.688;23.344;2022-07-04T11:46:39;95368.13;;;33.98;31.27
20027;BME280;10174;42.688;23.344;2022-07-04T11:49:09;95344.56;;;34.06;30.69
20027;BME280;10174;42.688;23.344;2022-07-04T11:51:41;95331.53;;;34.34;30.92
20027;BME280;10174;42.688;23.344;2022-07-04T11:54:07;95346.56;;;34.71;30.32
20027;BME280;10174;42.688;23.344;2022-07-04T11:56:32;95340.56;;;34.72;30.24
20027;BME280;10174;42.688;23.344;2022-07-04T11:59:10;95329.03;;;34.70;31.22
20027;BME280;10174;42.688;23.344;2022-07-04T12:01:35;95311.78;;;34.52;30.07
20027;BME280;10174;42.688;23.344;2022-07-04T12:06:42;95241.59;;;33.64;32.01
20027;BME280;10174;42.688;23.344;2022-07-04T12:09:08;95326.97;;;34.13;31.68
20027;BME280;10174;42.688;23.344;2022-07-04T12:11:58;95315.31;;;34.25;31.30
20027;BME280;10174;42.688;23.344;2022-07-04T12:14:25;95295.06;;;34.17;31.10
20027;BME280;10174;42.688;23.344;2022-07-04T12:17:16;95270.22;;;33.99;31.41
20027;BME280;10174;42.688;23.344;2022-07-04T12:19:55;95320.06;;;33.94;31.57
20027;BME280;10174;42.688;23.344;2022-07-04T12:22:35;95311.63;;;33.59;32.45
20027;BME280;10174;42.688;23.344;2022-07-04T12:25:02;95311.59;;;33.63;32.20
20027;BME280;10174;42.688;23.344;2022-07-04T12:27:28;95305.91;;;33.32;33.27
20027;BME280;10174;42.688;23.344;2022-07-04T12:29:54;95250.84;;;33.12;32.88
20027;BME280;10174;42.688;23.344;2022-07-04T12:32:20;95308.00;;;33.62;33.20
20027;BME280;10174;42.688;23.344;2022-07-04T12:34:46;95309.56;;;33.67;33.59
20027;BME280;10174;42.688;23.344;2022-07-04T12:37:13;95280.69;;;33.53;33.36
20027;BME280;10174;42.688;23.344;2022-07-04T12:39:42;95271.28;;;33.36;32.94
20027;BME280;10174;42.688;23.344;2022-07-04T12:42:16;95302.13;;;33.57;32.64
20027;BME280;10174;42.688;23.344;2022-07-04T12:44:44;95293.78;;;33.57;33.35
20027;BME280;10174;42.688;23.344;2022-07-04T12:47:11;95278.44;;;33.37;33.41
20027;BME280;10174;42.688;23.344;2022-07-04T12:49:41;95295.41;;;33.88;32.72
20027;BME280;10174;42.688;23.344;2022-07-04T12:52:10;95280.56;;;33.64;33.23
20027;BME280;10174;42.688;23.344;2022-07-04T12:54:36;95280.69;;;33.08;34.98
20027;BME280;10174;42.688;23.344;2022-07-04T12:57:07;95293.91;;;32.93;34.89
20027;BME280;10174;42.688;23.344;2022-07-04T12:59:33;95286.28;;;33.01;34.66
20027;BME280;10174;42.688;23.344;2022-07-04T13:01:59;95298.59;;;33.03;35.46
20027;BME280;10174;42.688;23.344;2022-07-04T13:04:25;95279.84;;;33.11;33.92
20027;BME280;10174;42.688;23.344;2022-07-04T13:06:50;95292.25;;;33.48;34.04
20027;BME280;10174;42.688;23.344;2022-07-04T13:09:16;95209.72;;;32.89;33.85
20027;BME280;10174;42.688;23.344;2022-07-04T13:11:42;95257.78;;;33.35;34.17
20027;BME280;10174;42.688;23.344;2022-07-04T13:14:26;95291.94;;;33.39;34.80
20027;BME280;10174;42.688;23.344;2022-07-04T13:16:52;95280.50;;;33.30;33.39
20027;BME280;10174;42.688;23.344;2022-07-04T13:19:18;95267.59;;;33.01;32.99
20027;BME280;10174;42.688;23.344;2022-07-04T13:21:44;95217.50;;;32.53;33.12
20027;BME280;10174;42.688;23.344;2022-07-04T13:24:10;95267.84;;;32.73;34.13
20027;BME280;10174;42.688;23.344;2022-07-04T13:26:35;95270.88;;;32.89;33.75
20027;BME280;10174;42.688;23.344;2022-07-04T13:29:03;95218.91;;;32.82;33.96